Time;durP1;ratioP1;P1;durP2;ratioP2;P2;SDS_P1;SDS_P2;PMS_P1;PMS_P2;Temp;Humidity;BMP_temperature;BMP_pressure;BME280_temperature;BME280_humidity;BME280_pressure;Samples;Min_cycle;Max_cycle;Signal;HPM_P1;HPM_P2
2023/08/08 00:00:46;;;;;;;;;;;;;;;21.55;39.44;100716.38;5005807;28;19925;-83
2023/08/08 00:03:11;;;;;;;;;;;;;;;21.56;39.41;100725.38;5005292;28;19917;-81
2023/08/08 00:05:36;;;;;;;;;;;;;;;21.57;39.45;100721.53;5029208;28;20297;-81
2023/08/08 00:08:02;;;;;;;;;;;;;;;21.64;39.36;100727.28;5025902;28;20563;-82
2023/08/08 00:10:27;;;;;;;;;;;;;;;21.67;39.37;100723.91;5021687;28;20011;-82
2023/08/08 00:12:52;;;;;;;;;;;;;;;21.66;39.36;100719.56;5023978;28;20016;-82
2023/08/08 00:15:18;;;;;;;;;;;;;;;21.62;39.16;100713.97;5026599;28;19917;-82
2023/08/08 00:17:43;;;;;;;;;;;;;;;21.60;39.24;100729.03;5016586;28;20374;-82
2023/08/08 00:20:09;;;;;;;;;;;;;;;21.63;39.30;100722.94;5023103;28;20373;-83
2023/08/08 00:22:34;;;;;;;;;;;;;;;21.65;39.05;100728.88;5004555;28;19924;-83
2023/08/08 00:24:59;;;;;;;;;;;;;;;21.65;39.03;100724.22;5023697;28;20439;-82
2023/08/08 00:27:25;;;;;;;;;;;;;;;21.65;39.14;100734.31;5031501;28;19987;-83
2023/08/08 00:29:50;;;;;;;;;;;;;;;21.62;39.16;100730.31;5017830;28;20436;-82
2023/08/08 00:32:16;;;;;;;;;;;;;;;21.59;39.08;100730.16;5023976;28;19978;-81
2023/08/08 00:34:41;;;;;;;;;;;;;;;21.61;39.41;100726.00;5019334;28;19917;-82
2023/08/08 00:37:06;;;;;;;;;;;;;;;21.65;39.07;100724.22;5019238;28;20557;-82
2023/08/08 00:39:32;;;;;;;;;;;;;;;21.63;39.04;100723.75;5031209;28;19987;-83
2023/08/08 00:41:57;;;;;;;;;;;;;;;21.53;39.10;100715.09;5025215;28;19921;-85
2023/08/08 00:44:22;;;;;;;;;;;;;;;21.47;39.24;100709.00;5024707;28;20412;-83
2023/08/08 00:46:48;;;;;;;;;;;;;;;21.50;39.24;100715.72;5022948;28;19917;-84
2023/08/08 00:49:13;;;;;;;;;;;;;;;21.41;39.49;100723.94;5020407;28;20396;-83
2023/08/08 00:51:38;;;;;;;;;;;;;;;21.38;39.60;100724.56;5020457;28;20295;-84
2023/08/08 00:54:04;;;;;;;;;;;;;;;21.37;39.54;100712.88;5021405;28;19927;-85
2023/08/08 00:56:29;;;;;;;;;;;;;;;21.37;39.54;100722.97;5020290;28;19932;-84
2023/08/08 00:58:55;;;;;;;;;;;;;;;21.32;39.71;100723.91;5020663;28;19929;-83
2023/08/08 01:01:20;;;;;;;;;;;;;;;21.32;39.60;100723.91;5025479;28;19917;-83
2023/08/08 01:03:45;;;;;;;;;;;;;;;21.30;39.59;100722.63;5023517;28;19949;-84
2023/08/08 01:06:16;;;;;;;;;;;;;;;21.29;39.63;100712.84;5022116;28;20385;-84
2023/08/08 01:08:47;;;;;;;;;;;;;;;21.32;39.51;100715.75;5023608;28;19917;-82
2023/08/08 01:11:14;;;;;;;;;;;;;;;21.19;39.84;100716.69;5024774;28;19921;-83
2023/08/08 01:13:40;;;;;;;;;;;;;;;21.17;39.78;100724.34;5018298;28;19993;-85
2023/08/08 01:16:06;;;;;;;;;;;;;;;21.19;39.86;100722.13;5024978;28;19917;-83
2023/08/08 01:18:31;;;;;;;;;;;;;;;21.17;39.78;100723.56;5018049;28;19925;-83
2023/08/08 01:20:57;;;;;;;;;;;;;;;21.14;39.91;100719.53;5026217;28;19924;-81
2023/08/08 01:23:33;;;;;;;;;;;;;;;21.14;39.70;100714.09;5021651;28;19990;-83
2023/08/08 01:25:59;;;;;;;;;;;;;;;21.14;39.59;100708.66;5019956;28;19921;-83
2023/08/08 01:28:24;;;;;;;;;;;;;;;21.17;39.75;100708.00;5027504;28;19932;-85
2023/08/08 01:30:50;;;;;;;;;;;;;;;21.10;39.62;100713.94;5020966;28;19917;-83
2023/08/08 01:33:16;;;;;;;;;;;;;;;21.03;39.65;100710.09;5018750;28;19917;-83
2023/08/08 01:35:44;;;;;;;;;;;;;;;21.00;39.62;100710.72;5020514;28;20016;-83
2023/08/08 01:38:20;;;;;;;;;;;;;;;20.95;39.82;100716.31;5020609;28;19967;-82
2023/08/08 01:40:46;;;;;;;;;;;;;;;20.97;39.94;100727.69;5021623;28;20035;-84
2023/08/08 01:43:12;;;;;;;;;;;;;;;20.98;39.83;100726.56;5016842;28;20008;-82
2023/08/08 01:45:38;;;;;;;;;;;;;;;20.97;39.84;100719.53;5017442;28;19918;-83
2023/08/08 01:48:10;;;;;;;;;;;;;;;20.98;39.75;100730.09;5017957;28;20315;-84
2023/08/08 01:50:36;;;;;;;;;;;;;;;20.93;39.65;100724.00;5024229;28;19917;-84
2023/08/08 01:53:01;;;;;;;;;;;;;;;20.93;39.94;100724.00;5017760;28;19921;-83
2023/08/08 01:55:27;;;;;;;;;;;;;;;20.90;39.86;100724.66;5018484;28;20290;-84
2023/08/08 01:57:52;;;;;;;;;;;;;;;20.93;39.66;100713.13;5005526;28;20027;-82
2023/08/08 02:00:17;;;;;;;;;;;;;;;20.87;39.88;100706.22;5021559;28;20442;-83
2023/08/08 02:02:43;;;;;;;;;;;;;;;20.81;39.81;100717.25;5017770;28;19917;-82
2023/08/08 02:05:08;;;;;;;;;;;;;;;20.80;39.89;100710.19;5022257;28;20523;-82
2023/08/08 02:07:33;;;;;;;;;;;;;;;20.79;39.86;100708.59;5017244;28;20269;-83
2023/08/08 02:09:59;;;;;;;;;;;;;;;20.80;39.75;100699.31;5024688;28;19917;-83
2023/08/08 02:12:24;;;;;;;;;;;;;;;20.74;39.82;100706.03;5019844;28;19925;-87
2023/08/08 02:14:50;;;;;;;;;;;;;;;20.76;39.86;100706.50;5021347;28;19924;-85
2023/08/08 02:17:15;;;;;;;;;;;;;;;20.74;39.81;100697.88;5008580;28;19965;-83
2023/08/08 02:19:40;;;;;;;;;;;;;;;20.73;39.53;100699.00;5030165;28;19921;-82
2023/08/08 02:22:05;;;;;;;;;;;;;;;20.66;39.84;100690.50;5007205;28;19923;-83
2023/08/08 02:24:31;;;;;;;;;;;;;;;20.67;39.92;100685.84;5008349;28;20487;-83
2023/08/08 02:26:56;;;;;;;;;;;;;;;20.70;39.66;100690.66;5008619;28;20000;-82
2023/08/08 02:29:21;;;;;;;;;;;;;;;20.70;39.65;100677.84;5028749;28;20009;-85
2023/08/08 02:31:47;;;;;;;;;;;;;;;20.73;39.71;100696.25;5024378;28;19924;-82
2023/08/08 02:34:12;;;;;;;;;;;;;;;20.72;39.66;100686.50;5030469;28;19921;-82
2023/08/08 02:36:37;;;;;;;;;;;;;;;20.73;39.62;100688.09;5029363;28;20531;-84
2023/08/08 02:39:03;;;;;;;;;;;;;;;20.73;39.67;100690.81;5023885;28;19968;-84
2023/08/08 02:41:28;;;;;;;;;;;;;;;20.70;39.57;100687.94;5020706;28;19928;-85
2023/08/08 02:43:53;;;;;;;;;;;;;;;20.73;39.21;100696.25;5026186;28;20470;-81
2023/08/08 02:46:19;;;;;;;;;;;;;;;20.70;39.39;100698.81;5026078;28;19917;-85
2023/08/08 02:48:44;;;;;;;;;;;;;;;20.68;39.67;100693.69;5022105;28;19921;-83
2023/08/08 02:51:09;;;;;;;;;;;;;;;20.65;39.48;100694.34;5023123;28;19928;-82
2023/08/08 02:53:35;;;;;;;;;;;;;;;20.70;39.40;100698.81;5023491;28;19956;-85
2023/08/08 02:56:00;;;;;;;;;;;;;;;20.69;39.23;100692.56;5025197;28;20548;-83
2023/08/08 02:58:25;;;;;;;;;;;;;;;20.66;39.29;100698.66;5029390;28;19983;-82
2023/08/08 03:00:52;;;;;;;;;;;;;;;20.62;39.45;100694.16;5029139;28;19924;-82
2023/08/08 03:03:17;;;;;;;;;;;;;;;20.62;39.61;100708.56;5011378;28;19917;-82
2023/08/08 03:05:44;;;;;;;;;;;;;;;20.64;39.37;100700.88;5022729;28;20340;-83
2023/08/08 03:08:10;;;;;;;;;;;;;;;20.64;39.43;100694.63;5023869;28;19921;-83
2023/08/08 03:10:35;;;;;;;;;;;;;;;20.65;39.20;100701.72;5024630;28;19933;-82
2023/08/08 03:13:00;;;;;;;;;;;;;;;20.63;39.36;100709.34;5025510;28;19929;-83
2023/08/08 03:15:26;;;;;;;;;;;;;;;20.59;39.50;100695.59;5024685;28;20371;-84
2023/08/08 03:17:51;;;;;;;;;;;;;;;20.56;39.60;100693.50;5025154;28;20377;-83
2023/08/08 03:20:16;;;;;;;;;;;;;;;20.54;39.53;100692.22;5020332;28;20411;-81
2023/08/08 03:22:42;;;;;;;;;;;;;;;20.52;39.42;100687.88;5016210;28;20000;-82
2023/08/08 03:25:07;;;;;;;;;;;;;;;20.47;39.65;100696.22;5016025;28;19917;-82
2023/08/08 03:27:32;;;;;;;;;;;;;;;20.54;39.69;100681.31;5020827;28;20407;-86
2023/08/08 03:29:58;;;;;;;;;;;;;;;20.49;39.78;100687.72;5022002;28;20369;-82
2023/08/08 03:32:23;;;;;;;;;;;;;;;20.47;39.83;100692.69;5023325;28;20006;-82
2023/08/08 03:34:48;;;;;;;;;;;;;;;20.52;39.86;100696.06;4999644;28;20297;-81
2023/08/08 03:37:14;;;;;;;;;;;;;;;20.47;39.94;100698.94;5024321;28;20075;-83
2023/08/08 03:39:39;;;;;;;;;;;;;;;20.46;39.88;100704.66;5022061;28;20393;-83
2023/08/08 03:42:04;;;;;;;;;;;;;;;20.48;39.98;100697.00;5020089;28;19948;-85
2023/08/08 03:44:30;;;;;;;;;;;;;;;20.44;40.08;100706.91;5020763;28;20923;-84
2023/08/08 03:46:55;;;;;;;;;;;;;;;20.47;40.01;100695.41;5025657;28;19917;-84
2023/08/08 03:49:20;;;;;;;;;;;;;;;20.53;39.85;100705.03;5024494;28;19917;-84
2023/08/08 03:51:47;;;;;;;;;;;;;;;20.47;40.18;100714.47;5018696;28;19926;-86
2023/08/08 03:54:12;;;;;;;;;;;;;;;20.43;40.21;100713.47;5027374;28;19925;-85
2023/08/08 03:56:38;;;;;;;;;;;;;;;20.42;40.40;100722.75;5019744;28;19917;-82
2023/08/08 03:59:03;;;;;;;;;;;;;;;20.48;40.32;100726.94;5005859;28;20405;-84
2023/08/08 04:01:28;;;;;;;;;;;;;;;20.48;40.43;100730.47;5025895;28;19917;-84
2023/08/08 04:03:53;;;;;;;;;;;;;;;20.54;40.40;100722.16;5025491;28;19932;-84
2023/08/08 04:06:19;;;;;;;;;;;;;;;20.62;40.09;100730.34;5025757;28;20006;-85
2023/08/08 04:08:44;;;;;;;;;;;;;;;20.61;40.17;100720.56;5025829;28;20380;-85
2023/08/08 04:11:09;;;;;;;;;;;;;;;20.57;40.45;100737.84;5025239;28;19917;-83
2023/08/08 04:13:35;;;;;;;;;;;;;;;20.55;40.37;100729.19;5022639;28;19917;-84
2023/08/08 04:16:00;;;;;;;;;;;;;;;20.55;40.54;100734.66;5024101;28;19921;-84
2023/08/08 04:18:26;;;;;;;;;;;;;;;20.58;40.56;100734.81;5022506;28;20407;-83
2023/08/08 04:20:51;;;;;;;;;;;;;;;20.62;40.55;100735.78;5021235;28;19944;-82
2023/08/08 04:23:16;;;;;;;;;;;;;;;20.67;40.55;100732.94;5021696;28;19940;-83
2023/08/08 04:25:42;;;;;;;;;;;;;;;20.73;40.38;100737.09;5022982;28;20362;-84
2023/08/08 04:28:07;;;;;;;;;;;;;;;20.71;40.37;100727.66;5023560;28;19924;-84
2023/08/08 04:30:32;;;;;;;;;;;;;;;20.69;40.61;100733.41;5024715;28;19925;-84
2023/08/08 04:32:57;;;;;;;;;;;;;;;20.73;40.51;100730.84;5020829;28;20373;-82
2023/08/08 04:35:23;;;;;;;;;;;;;;;20.75;40.36;100734.88;5019044;28;19994;-83
2023/08/08 04:37:48;;;;;;;;;;;;;;;20.60;40.90;100740.75;5019253;28;19925;-84
2023/08/08 04:40:13;;;;;;;;;;;;;;;20.67;40.65;100729.41;5008044;28;19940;-83
2023/08/08 04:42:39;;;;;;;;;;;;;;;20.64;40.97;100708.25;5016544;28;20385;-81
2023/08/08 04:45:05;;;;;;;;;;;;;;;20.60;40.96;100716.25;5018367;28;20000;-82
2023/08/08 04:47:30;;;;;;;;;;;;;;;20.66;40.81;100714.19;5016992;28;19974;-81
2023/08/08 04:49:55;;;;;;;;;;;;;;;20.64;41.07;100721.84;5026073;28;19920;-83
2023/08/08 04:52:21;;;;;;;;;;;;;;;20.61;40.99;100723.28;5023067;28;19961;-85
2023/08/08 04:54:46;;;;;;;;;;;;;;;20.63;41.10;100728.41;5004328;28;20435;-84
2023/08/08 04:57:11;;;;;;;;;;;;;;;20.64;41.33;100728.09;5016994;28;19918;-85
2023/08/08 04:59:37;;;;;;;;;;;;;;;20.71;41.18;100747.50;5015459;28;20025;-86
2023/08/08 05:02:02;;;;;;;;;;;;;;;20.75;41.11;100737.59;5022362;28;19947;-85
2023/08/08 05:04:27;;;;;;;;;;;;;;;20.76;41.32;100738.38;5023652;28;20610;-84
2023/08/08 05:06:53;;;;;;;;;;;;;;;20.79;41.39;100756.81;5023135;28;19917;-84
2023/08/08 05:09:20;;;;;;;;;;;;;;;20.84;41.16;100748.50;5018291;28;19922;-84
2023/08/08 05:11:45;;;;;;;;;;;;;;;20.83;41.43;100751.56;5023887;28;19971;-85
2023/08/08 05:14:11;;;;;;;;;;;;;;;20.78;41.38;100756.00;5023658;28;19920;-82
2023/08/08 05:16:36;;;;;;;;;;;;;;;20.82;41.70;100761.63;5024707;28;19959;-82
2023/08/08 05:19:01;;;;;;;;;;;;;;;20.92;41.25;100746.91;5019874;28;20355;-83
2023/08/08 05:21:26;;;;;;;;;;;;;;;20.92;41.27;100763.25;5015576;28;19925;-84
2023/08/08 05:23:52;;;;;;;;;;;;;;;20.88;41.58;100765.03;5016973;28;20020;-82
2023/08/08 05:26:17;;;;;;;;;;;;;;;20.87;41.60;100758.78;5021622;28;20365;-83
2023/08/08 05:28:42;;;;;;;;;;;;;;;20.91;41.54;100769.81;5019658;28;19944;-85
2023/08/08 05:31:09;;;;;;;;;;;;;;;20.87;41.85;100747.88;5018213;28;20392;-81
2023/08/08 05:33:34;;;;;;;;;;;;;;;20.89;41.69;100769.34;5020285;28;19925;-84
2023/08/08 05:35:59;;;;;;;;;;;;;;;20.91;41.81;100754.28;5018491;28;19919;-84
2023/08/08 05:38:25;;;;;;;;;;;;;;;21.02;41.65;100749.34;5016204;28;19971;-84
2023/08/08 05:40:50;;;;;;;;;;;;;;;21.15;41.63;100756.56;5017039;28;20377;-83
2023/08/08 05:43:18;;;;;;;;;;;;;;;21.30;41.40;100756.13;5018760;28;20319;-83
2023/08/08 05:45:43;;;;;;;;;;;;;;;21.45;41.27;100763.03;5009352;28;19928;-83
2023/08/08 05:48:11;;;;;;;;;;;;;;;21.56;41.22;100758.09;5029264;28;19917;-84
2023/08/08 05:50:39;;;;;;;;;;;;;;;21.68;41.21;100750.03;5019988;28;20122;-85
2023/08/08 05:53:05;;;;;;;;;;;;;;;21.77;40.93;100755.50;5016380;28;19921;-85
2023/08/08 05:55:30;;;;;;;;;;;;;;;21.83;40.82;100757.72;5027205;28;20415;-85
2023/08/08 05:57:55;;;;;;;;;;;;;;;21.79;40.96;100755.97;5026355;28;20008;-82
2023/08/08 06:00:21;;;;;;;;;;;;;;;21.80;41.01;100754.84;5015281;28;19924;-82
2023/08/08 06:02:46;;;;;;;;;;;;;;;21.70;40.96;100745.84;5006336;28;20521;-81
2023/08/08 06:05:12;;;;;;;;;;;;;;;21.66;41.17;100760.47;5021833;28;19917;-84
2023/08/08 06:07:37;;;;;;;;;;;;;;;21.72;41.25;100753.72;5027117;28;20499;-85
2023/08/08 06:10:03;;;;;;;;;;;;;;;21.83;41.10;100752.28;5030474;28;20023;-85
2023/08/08 06:12:28;;;;;;;;;;;;;;;21.87;40.96;100747.75;5024676;28;20412;-82
2023/08/08 06:14:53;;;;;;;;;;;;;;;21.85;41.11;100758.19;5024339;28;20482;-83
2023/08/08 06:17:19;;;;;;;;;;;;;;;21.84;41.04;100758.53;5019184;28;20340;-82
2023/08/08 06:19:45;;;;;;;;;;;;;;;21.85;41.07;100752.75;5024302;28;19921;-82
2023/08/08 06:22:10;;;;;;;;;;;;;;;21.80;40.94;100755.66;5028073;28;19924;-84
2023/08/08 06:24:35;;;;;;;;;;;;;;;21.84;41.28;100751.13;5023597;28;20525;-85
2023/08/08 06:27:01;;;;;;;;;;;;;;;21.86;41.11;100748.88;5024782;28;19921;-85
2023/08/08 06:29:27;;;;;;;;;;;;;;;21.87;41.18;100760.59;5024991;28;19979;-84
2023/08/08 06:31:52;;;;;;;;;;;;;;;21.97;41.08;100772.00;5026074;28;19917;-83
2023/08/08 06:34:18;;;;;;;;;;;;;;;21.96;40.92;100775.03;5020603;28;19924;-81
2023/08/08 06:36:43;;;;;;;;;;;;;;;21.95;40.93;100768.78;5021571;28;20413;-84
2023/08/08 06:39:08;;;;;;;;;;;;;;;21.95;40.92;100776.97;5021517;28;19921;-82
2023/08/08 06:41:33;;;;;;;;;;;;;;;21.97;40.99;100769.25;5020638;28;19971;-83
2023/08/08 06:43:59;;;;;;;;;;;;;;;21.99;41.03;100760.75;5025903;28;19921;-84
2023/08/08 06:46:24;;;;;;;;;;;;;;;22.02;41.00;100774.53;5023911;28;19921;-84
2023/08/08 06:48:52;;;;;;;;;;;;;;;22.12;40.89;100770.72;5026871;28;19924;-82
2023/08/08 06:51:18;;;;;;;;;;;;;;;22.23;40.56;100762.94;5023876;28;19917;-83
2023/08/08 06:53:43;;;;;;;;;;;;;;;22.29;40.43;100776.13;5022026;28;19927;-83
2023/08/08 06:56:08;;;;;;;;;;;;;;;22.27;40.55;100772.91;5020508;28;19924;-83
2023/08/08 06:58:34;;;;;;;;;;;;;;;22.27;40.46;100767.47;5009819;28;19932;-82
2023/08/08 07:00:59;;;;;;;;;;;;;;;22.27;40.40;100762.00;5022355;28;19917;-84
2023/08/08 07:03:24;;;;;;;;;;;;;;;22.25;40.61;100774.34;5019547;28;19980;-85
2023/08/08 07:05:51;;;;;;;;;;;;;;;22.36;40.56;100770.16;5011416;28;20369;-83
2023/08/08 07:08:17;;;;;;;;;;;;;;;22.47;40.37;100756.94;5020570;28;19924;-83
2023/08/08 07:10:42;;;;;;;;;;;;;;;22.48;40.35;100778.47;5025542;28;19917;-85
2023/08/08 07:13:08;;;;;;;;;;;;;;;22.52;40.27;100784.88;5021573;28;19921;-83
2023/08/08 07:15:34;;;;;;;;;;;;;;;22.51;40.02;100780.53;5025873;28;19925;-85
2023/08/08 07:17:59;;;;;;;;;;;;;;;22.48;40.09;100772.19;5022224;28;19929;-84
2023/08/08 07:20:25;;;;;;;;;;;;;;;22.49;40.26;100780.06;5022246;28;19921;-84
2023/08/08 07:22:50;;;;;;;;;;;;;;;22.54;40.22;100773.63;5024427;28;20289;-85
2023/08/08 07:25:16;;;;;;;;;;;;;;;22.55;39.94;100765.09;5019499;28;19959;-85
2023/08/08 07:27:41;;;;;;;;;;;;;;;22.51;39.91;100766.88;5021967;28;20304;-81
2023/08/08 07:30:07;;;;;;;;;;;;;;;22.45;40.17;100767.41;5021774;28;20566;-84
2023/08/08 07:32:33;;;;;;;;;;;;;;;22.54;40.12;100784.53;5026009;28;20455;-81
2023/08/08 07:35:01;;;;;;;;;;;;;;;22.63;40.10;100779.84;5020949;28;19917;-82
2023/08/08 07:37:26;;;;;;;;;;;;;;;22.71;40.13;100786.38;5025149;28;19925;-83
2023/08/08 07:39:52;;;;;;;;;;;;;;;22.80;40.12;100787.13;5021254;28;19975;-84
2023/08/08 07:42:17;;;;;;;;;;;;;;;22.86;40.00;100783.94;5023418;28;19928;-85
2023/08/08 07:44:42;;;;;;;;;;;;;;;22.88;39.85;100781.66;5024557;28;19952;-81
2023/08/08 07:47:07;;;;;;;;;;;;;;;22.87;39.75;100782.81;5010428;28;19960;-85
2023/08/08 07:49:33;;;;;;;;;;;;;;;22.89;39.79;100782.47;5016149;28;19968;-82
2023/08/08 07:51:58;;;;;;;;;;;;;;;22.91;39.91;100785.66;5020088;28;19999;-84
2023/08/08 07:54:23;;;;;;;;;;;;;;;22.97;39.76;100778.88;5025821;28;20438;-83
2023/08/08 07:56:49;;;;;;;;;;;;;;;23.01;39.76;100792.69;5027060;28;19917;-86
2023/08/08 07:59:17;;;;;;;;;;;;;;;23.10;39.52;100782.50;5025950;28;19931;-82
2023/08/08 08:01:42;;;;;;;;;;;;;;;23.09;39.66;100780.91;5022187;28;19917;-82
2023/08/08 08:04:08;;;;;;;;;;;;;;;23.17;39.55;100794.53;5027740;28;20791;-83
2023/08/08 08:06:33;;;;;;;;;;;;;;;23.25;39.57;100784.66;5022340;28;19921;-84
2023/08/08 08:08:59;;;;;;;;;;;;;;;23.37;39.44;100792.94;5026180;28;19914;-82
2023/08/08 08:11:24;;;;;;;;;;;;;;;23.48;39.27;100787.84;5018608;28;20444;-85
2023/08/08 08:13:49;;;;;;;;;;;;;;;23.44;39.21;100778.72;5016559;28;20008;-84
2023/08/08 08:16:15;;;;;;;;;;;;;;;23.47;39.31;100769.84;5022936;28;19917;-81
2023/08/08 08:18:40;;;;;;;;;;;;;;;23.52;39.13;100775.94;5022910;28;20049;-82
2023/08/08 08:21:05;;;;;;;;;;;;;;;23.49;39.09;100776.59;5023012;28;20033;-84
2023/08/08 08:23:32;;;;;;;;;;;;;;;23.53;39.09;100793.16;5018971;28;19921;-83
2023/08/08 08:25:57;;;;;;;;;;;;;;;23.58;39.12;100773.03;5020942;28;19914;-84
2023/08/08 08:28:22;;;;;;;;;;;;;;;23.69;38.50;100766.00;5017663;28;19925;-84
2023/08/08 08:30:49;;;;;;;;;;;;;;;23.75;38.24;100776.41;5010163;28;19932;-85
2023/08/08 08:33:14;;;;;;;;;;;;;;;23.71;38.21;100767.28;5021228;28;20400;-83
2023/08/08 08:35:40;;;;;;;;;;;;;;;23.91;38.19;100770.31;5005851;28;19917;-83
2023/08/08 08:38:06;;;;;;;;;;;;;;;24.09;38.17;100769.00;5005297;28;20292;-83
2023/08/08 08:40:35;;;;;;;;;;;;;;;24.16;37.93;100763.75;5026727;28;19920;-82
2023/08/08 08:43:01;;;;;;;;;;;;;;;24.17;37.69;100761.81;5026039;28;19933;-82
2023/08/08 08:45:29;;;;;;;;;;;;;;;24.04;37.74;100760.97;5024784;28;20036;-81
2023/08/08 08:47:55;;;;;;;;;;;;;;;24.01;37.72;100753.44;5021961;28;19928;-82
2023/08/08 08:50:21;;;;;;;;;;;;;;;24.22;37.90;100762.38;5022853;28;19917;-83
2023/08/08 08:52:46;;;;;;;;;;;;;;;24.46;37.50;100745.25;5023176;28;20300;-82
2023/08/08 08:55:12;;;;;;;;;;;;;;;24.57;36.18;100751.03;5028938;28;19923;-84
2023/08/08 08:57:37;;;;;;;;;;;;;;;24.51;36.39;100753.22;5025346;28;19917;-83
2023/08/08 09:00:03;;;;;;;;;;;;;;;24.47;36.52;100748.78;5019270;28;19921;-83
2023/08/08 09:02:28;;;;;;;;;;;;;;;24.43;36.40;100750.59;5029934;28;20463;-87
2023/08/08 09:04:54;;;;;;;;;;;;;;;24.40;36.49;100755.59;5022329;28;19929;-85
2023/08/08 09:07:22;;;;;;;;;;;;;;;24.46;36.57;100758.13;5021398;28;19917;-84
2023/08/08 09:09:47;;;;;;;;;;;;;;;24.51;36.61;100760.63;5003777;28;19932;-82
2023/08/08 09:12:12;;;;;;;;;;;;;;;24.65;36.67;100753.69;5022243;28;19917;-83
2023/08/08 09:14:41;;;;;;;;;;;;;;;24.83;36.88;100751.50;5020625;28;19917;-83
2023/08/08 09:17:10;;;;;;;;;;;;;;;25.04;36.66;100748.66;5017835;28;19918;-82
2023/08/08 09:19:35;;;;;;;;;;;;;;;25.13;36.32;100757.53;5029284;28;19921;-84
2023/08/08 09:22:01;;;;;;;;;;;;;;;25.03;36.63;100751.75;5023926;28;19932;-85
2023/08/08 09:24:26;;;;;;;;;;;;;;;25.05;36.54;100766.69;5023234;28;19929;-86
2023/08/08 09:26:52;;;;;;;;;;;;;;;24.90;36.04;100754.47;5027350;28;19924;-82
2023/08/08 09:29:17;;;;;;;;;;;;;;;24.92;36.10;100762.34;5025804;28;19916;-83
2023/08/08 09:31:42;;;;;;;;;;;;;;;24.81;36.32;100761.22;5022259;28;19921;-83
2023/08/08 09:34:08;;;;;;;;;;;;;;;24.80;36.13;100749.47;5020492;28;19922;-82
2023/08/08 09:36:34;;;;;;;;;;;;;;;24.96;36.25;100746.81;5029588;28;19932;-82
2023/08/08 09:39:00;;;;;;;;;;;;;;;25.21;36.24;100747.59;5026264;28;19921;-82
2023/08/08 09:41:26;;;;;;;;;;;;;;;25.41;35.79;100752.09;5029227;28;19928;-86
2023/08/08 09:43:52;;;;;;;;;;;;;;;25.46;35.37;100754.59;5028060;28;19917;-84
2023/08/08 09:46:21;;;;;;;;;;;;;;;25.37;35.51;100744.94;5028949;28;19917;-83
2023/08/08 09:48:46;;;;;;;;;;;;;;;25.27;35.65;100754.44;5028478;28;19928;-83
2023/08/08 09:51:12;;;;;;;;;;;;;;;25.20;35.87;100752.28;5024636;28;19922;-84
2023/08/08 09:53:38;;;;;;;;;;;;;;;25.31;35.85;100749.84;5022984;28;19965;-82
2023/08/08 09:56:04;;;;;;;;;;;;;;;25.52;35.66;100749.69;5023445;28;19925;-82
2023/08/08 09:58:29;;;;;;;;;;;;;;;25.65;35.34;100753.94;5022586;28;20300;-82
2023/08/08 10:00:55;;;;;;;;;;;;;;;25.72;34.99;100751.44;5022004;28;20376;-85
2023/08/08 10:03:21;;;;;;;;;;;;;;;25.78;34.94;100752.00;5025466;28;19921;-82
2023/08/08 10:05:46;;;;;;;;;;;;;;;25.78;34.76;100760.22;5023030;28;20020;-84
2023/08/08 10:08:15;;;;;;;;;;;;;;;25.71;34.70;100749.84;5025282;28;20320;-82
2023/08/08 10:10:41;;;;;;;;;;;;;;;25.71;34.68;100757.28;5025457;28;19917;-83
2023/08/08 10:13:07;;;;;;;;;;;;;;;25.73;34.87;100752.25;5026283;28;19917;-85
2023/08/08 10:15:36;;;;;;;;;;;;;;;25.61;34.50;100753.06;5019510;28;20424;-85
2023/08/08 10:18:02;;;;;;;;;;;;;;;25.56;35.06;100748.63;5022262;28;19948;-83
2023/08/08 10:20:27;;;;;;;;;;;;;;;25.63;35.21;100763.69;5025297;28;19925;-84
2023/08/08 10:22:54;;;;;;;;;;;;;;;25.72;35.14;100759.69;5019276;28;19972;-82
2023/08/08 10:25:30;;;;;;;;;;;;;;;25.72;35.01;100754.19;5022530;28;19983;-83
2023/08/08 10:28:10;;;;;;;;;;;;;;;25.74;34.92;100756.59;5025499;28;19918;-82
2023/08/08 10:30:45;;;;;;;;;;;;;;;25.59;34.59;100769.06;5022601;28;19972;-86
2023/08/08 10:33:21;;;;;;;;;;;;;;;25.34;35.07;100776.59;5024127;28;19928;-85
2023/08/08 10:36:00;;;;;;;;;;;;;;;25.18;35.23;100767.47;5025214;28;19952;-83
2023/08/08 10:38:26;;;;;;;;;;;;;;;25.06;35.53;100762.00;5024578;28;19990;-82
2023/08/08 10:40:58;;;;;;;;;;;;;;;25.11;35.92;100759.81;5030906;28;20373;-85
2023/08/08 10:43:28;;;;;;;;;;;;;;;25.16;36.06;100747.84;5025166;28;20400;-84
2023/08/08 10:45:56;;;;;;;;;;;;;;;25.17;36.26;100761.19;5032474;28;19944;-83
2023/08/08 10:48:21;;;;;;;;;;;;;;;25.32;36.19;100745.19;5022372;28;19925;-81
2023/08/08 10:50:47;;;;;;;;;;;;;;;25.40;36.00;100749.72;5003271;28;19921;-85
2023/08/08 10:53:12;;;;;;;;;;;;;;;25.35;36.13;100745.28;5011574;28;20011;-85
2023/08/08 10:55:38;;;;;;;;;;;;;;;25.41;36.29;100741.13;5017883;28;19924;-84
2023/08/08 10:58:07;;;;;;;;;;;;;;;25.59;36.43;100742.44;5009301;28;20428;-85
2023/08/08 11:00:36;;;;;;;;;;;;;;;25.80;36.66;100724.97;5024351;28;19920;-84
2023/08/08 11:03:04;;;;;;;;;;;;;;;25.91;35.58;100731.56;5025772;28;19925;-84
2023/08/08 11:05:30;;;;;;;;;;;;;;;25.91;36.02;100728.81;5025552;28;19917;-84
2023/08/08 11:07:56;;;;;;;;;;;;;;;25.98;35.94;100723.50;5023428;28;20341;-84
2023/08/08 11:10:22;;;;;;;;;;;;;;;26.00;36.27;100723.16;5023347;28;19928;-84
2023/08/08 11:12:55;;;;;;;;;;;;;;;26.15;35.81;100725.91;5031717;28;19921;-85
2023/08/08 11:15:20;;;;;;;;;;;;;;;26.27;35.62;100721.50;5028343;28;19921;-84
2023/08/08 11:17:45;;;;;;;;;;;;;;;26.39;35.15;100732.41;5030754;28;21129;-85
2023/08/08 11:20:11;;;;;;;;;;;;;;;26.40;35.36;100709.31;5024793;28;20328;-84
2023/08/08 11:22:36;;;;;;;;;;;;;;;26.59;35.17;100703.88;5027309;28;19925;-85
2023/08/08 11:25:03;;;;;;;;;;;;;;;26.83;34.78;100705.59;5026847;28;21635;-83
2023/08/08 11:27:28;;;;;;;;;;;;;;;26.96;34.77;100703.50;5025217;28;19978;-82
2023/08/08 11:29:56;;;;;;;;;;;;;;;27.08;34.42;100706.94;5026337;28;19921;-83
2023/08/08 11:32:21;;;;;;;;;;;;;;;27.18;34.31;100704.78;5026417;28;19971;-82
2023/08/08 11:34:47;;;;;;;;;;;;;;;27.23;34.07;100715.50;5008158;28;19921;-82
2023/08/08 11:37:15;;;;;;;;;;;;;;;27.26;33.55;100723.81;5015042;28;19925;-84
2023/08/08 11:39:40;;;;;;;;;;;;;;;27.33;33.88;100706.69;5026263;28;20467;-83
2023/08/08 11:42:06;;;;;;;;;;;;;;;27.27;34.01;100697.91;5024890;28;19970;-84
2023/08/08 11:44:32;;;;;;;;;;;;;;;27.27;33.85;100692.41;5026503;28;19921;-84
2023/08/08 11:46:59;;;;;;;;;;;;;;;27.24;33.23;100698.63;5015864;28;19921;-82
2023/08/08 11:49:25;;;;;;;;;;;;;;;27.08;32.83;100695.94;5021167;28;19987;-84
2023/08/08 11:51:50;;;;;;;;;;;;;;;26.89;33.62;100706.88;5019952;28;20401;-81
2023/08/08 11:54:15;;;;;;;;;;;;;;;26.74;33.86;100713.22;5032832;28;19920;-83
2023/08/08 11:56:41;;;;;;;;;;;;;;;26.51;34.18;100732.31;5023989;28;19917;-83
2023/08/08 11:59:07;;;;;;;;;;;;;;;26.39;34.05;100727.75;5012365;28;19921;-85
2023/08/08 12:01:33;;;;;;;;;;;;;;;26.33;34.43;100726.34;5020986;28;19940;-82
2023/08/08 12:04:04;;;;;;;;;;;;;;;26.43;34.55;100719.56;5020145;28;19921;-82
2023/08/08 12:06:30;;;;;;;;;;;;;;;26.48;34.13;100719.31;5021150;28;19967;-83
2023/08/08 12:08:55;;;;;;;;;;;;;;;26.47;34.44;100709.47;5020109;28;19917;-83
2023/08/08 12:11:21;;;;;;;;;;;;;;;26.52;34.09;100711.94;5020128;28;19917;-82
2023/08/08 12:13:46;;;;;;;;;;;;;;;26.48;33.73;100711.84;5024772;28;20063;-83
2023/08/08 12:16:13;;;;;;;;;;;;;;;26.27;34.02;100714.06;5024646;28;19917;-85
2023/08/08 12:18:38;;;;;;;;;;;;;;;26.20;34.33;100706.41;5000476;28;19922;-84
2023/08/08 12:21:04;;;;;;;;;;;;;;;26.29;34.22;100730.19;5020095;28;19932;-85
2023/08/08 12:23:30;;;;;;;;;;;;;;;26.25;34.31;100713.63;5021739;28;19916;-84
2023/08/08 12:25:56;;;;;;;;;;;;;;;26.30;34.20;100713.34;5024720;28;20385;-84
2023/08/08 12:28:22;;;;;;;;;;;;;;;26.28;33.92;100728.59;5022296;28;19917;-85